Time;durP1;ratioP1;P1;durP2;ratioP2;P2;SDS_P1;SDS_P2;PMS_P1;PMS_P2;Temp;Humidity;BMP_temperature;BMP_pressure;BME280_temperature;BME280_humidity;BME280_pressure;Samples;Min_cycle;Max_cycle;Signal;HPM_P1;HPM_P2
2023/08/19 00:00:58;;;;;;;0.20;0.15;;;;;;;;;;5004707;28;20038;-79
2023/08/19 00:03:24;;;;;;;0.30;0.30;;;;;;;;;;5019809;28;20046;-80
2023/08/19 00:05:50;;;;;;;0.20;0.20;;;;;;;;;;5018439;28;20034;-80
2023/08/19 00:08:16;;;;;;;0.38;0.28;;;;;;;;;;5014233;28;20044;-79
2023/08/19 00:10:42;;;;;;;0.20;0.20;;;;;;;;;;5023598;28;20037;-80
2023/08/19 00:13:08;;;;;;;0.50;0.40;;;;;;;;;;5021918;28;20242;-80
2023/08/19 00:15:34;;;;;;;0.38;0.35;;;;;;;;;;5010982;28;20093;-79
2023/08/19 00:18:01;;;;;;;0.20;0.20;;;;;;;;;;5009566;28;20041;-80
2023/08/19 00:20:28;;;;;;;0.30;0.20;;;;;;;;;;4996131;28;20140;-79
2023/08/19 00:22:57;;;;;;;0.30;0.30;;;;;;;;;;5019910;28;20421;-78
2023/08/19 00:25:26;;;;;;;0.20;0.20;;;;;;;;;;5015691;28;20033;-80
2023/08/19 00:27:53;;;;;;;0.65;0.38;;;;;;;;;;5020757;28;22125;-79
2023/08/19 00:30:19;;;;;;;0.30;0.30;;;;;;;;;;5020508;28;20045;-80
2023/08/19 00:32:46;;;;;;;0.20;0.20;;;;;;;;;;5012922;28;20045;-77
2023/08/19 00:35:13;;;;;;;0.20;0.10;;;;;;;;;;5019926;28;20124;-79
2023/08/19 00:37:39;;;;;;;0.75;0.43;;;;;;;;;;5021643;28;20095;-79
2023/08/19 00:40:05;;;;;;;0.20;0.10;;;;;;;;;;5009104;28;20030;-79
2023/08/19 00:42:32;;;;;;;0.32;0.22;;;;;;;;;;5013959;28;20041;-79
2023/08/19 00:44:58;;;;;;;0.68;0.65;;;;;;;;;;5015414;28;20042;-78
2023/08/19 00:47:27;;;;;;;1.38;0.50;;;;;;;;;;5023980;28;20097;-78
2023/08/19 00:49:53;;;;;;;0.93;0.57;;;;;;;;;;5021631;28;20213;-79
2023/08/19 00:52:19;;;;;;;0.30;0.20;;;;;;;;;;5023743;28;20053;-79
2023/08/19 00:54:45;;;;;;;0.38;0.38;;;;;;;;;;5006910;28;20037;-78
2023/08/19 00:57:14;;;;;;;0.20;0.20;;;;;;;;;;5054496;23;20036;-83
2023/08/19 00:59:41;;;;;;;0.80;0.60;;;;;;;;;;5047488;28;20081;-83
2023/08/19 01:02:07;;;;;;;0.30;0.30;;;;;;;;;;5040564;28;20058;-84
2023/08/19 01:04:33;;;;;;;0.40;0.28;;;;;;;;;;5054093;28;20073;-84
2023/08/19 01:07:02;;;;;;;0.30;0.20;;;;;;;;;;5064048;28;20495;-84
2023/08/19 01:09:32;;;;;;;0.47;0.30;;;;;;;;;;5033728;28;20062;-83
2023/08/19 01:12:15;;;;;;;0.20;0.20;;;;;;;;;;5055596;28;20044;-83
2023/08/19 01:14:51;;;;;;;0.22;0.20;;;;;;;;;;5035952;28;20035;-84
2023/08/19 01:17:18;;;;;;;0.40;0.30;;;;;;;;;;5034038;28;20047;-83
2023/08/19 01:19:45;;;;;;;0.43;0.40;;;;;;;;;;5039588;28;20098;-84
2023/08/19 01:22:16;;;;;;;0.30;0.30;;;;;;;;;;5038015;28;20105;-83
2023/08/19 01:24:43;;;;;;;0.25;0.25;;;;;;;;;;5037795;28;20461;-83
2023/08/19 01:27:23;;;;;;;0.30;0.30;;;;;;;;;;5044015;28;20137;-85
2023/08/19 01:29:50;;;;;;;0.20;0.13;;;;;;;;;;5047578;28;20032;-83
2023/08/19 01:32:17;;;;;;;0.30;0.20;;;;;;;;;;5039239;28;20593;-83
2023/08/19 01:34:43;;;;;;;0.20;0.20;;;;;;;;;;5037792;28;21773;-84
2023/08/19 01:37:12;;;;;;;0.20;0.15;;;;;;;;;;5057876;28;20060;-84
2023/08/19 01:39:38;;;;;;;1.10;0.20;;;;;;;;;;5057272;28;20100;-83
2023/08/19 01:42:04;;;;;;;0.47;0.40;;;;;;;;;;5054861;28;20504;-83
2023/08/19 01:44:31;;;;;;;0.20;0.10;;;;;;;;;;5039533;28;20090;-83
2023/08/19 01:46:57;;;;;;;0.45;0.40;;;;;;;;;;5038177;28;20508;-84
2023/08/19 01:49:23;;;;;;;0.50;0.47;;;;;;;;;;5041127;28;20032;-83
2023/08/19 01:51:49;;;;;;;0.95;0.40;;;;;;;;;;5056341;28;20044;-84
2023/08/19 01:54:15;;;;;;;2.38;0.50;;;;;;;;;;5035234;28;20052;-84
2023/08/19 01:56:41;;;;;;;0.57;0.30;;;;;;;;;;5054441;28;20047;-84
2023/08/19 01:59:07;;;;;;;0.20;0.10;;;;;;;;;;5041707;28;20446;-83
2023/08/19 02:01:33;;;;;;;1.30;0.30;;;;;;;;;;5042305;28;20421;-84
2023/08/19 02:03:59;;;;;;;0.55;0.43;;;;;;;;;;5055587;28;20679;-83
2023/08/19 02:06:25;;;;;;;0.60;0.60;;;;;;;;;;5057967;28;20555;-84
2023/08/19 02:08:51;;;;;;;1.02;0.73;;;;;;;;;;5041080;28;20060;-84
2023/08/19 02:11:19;;;;;;;1.15;0.60;;;;;;;;;;5058462;28;20493;-83
2023/08/19 02:13:45;;;;;;;0.40;0.40;;;;;;;;;;5046304;28;20596;-84
2023/08/19 02:16:11;;;;;;;0.20;0.20;;;;;;;;;;5039983;28;20086;-83
2023/08/19 02:18:37;;;;;;;0.88;0.73;;;;;;;;;;5041973;28;20066;-84
2023/08/19 02:21:03;;;;;;;0.40;0.38;;;;;;;;;;5038204;28;20271;-84
2023/08/19 02:23:30;;;;;;;0.30;0.20;;;;;;;;;;5043780;28;20036;-84
2023/08/19 02:25:56;;;;;;;1.05;0.20;;;;;;;;;;5039176;28;20471;-84
2023/08/19 02:28:22;;;;;;;0.30;0.28;;;;;;;;;;5062228;28;20051;-84
2023/08/19 02:30:48;;;;;;;0.30;0.20;;;;;;;;;;5066199;28;20032;-84
2023/08/19 02:33:14;;;;;;;0.40;0.35;;;;;;;;;;5049931;28;20051;-84
2023/08/19 02:35:40;;;;;;;0.20;0.20;;;;;;;;;;5051657;28;20508;-84
2023/08/19 02:38:06;;;;;;;0.50;0.45;;;;;;;;;;5029285;28;20067;-84
2023/08/19 02:40:32;;;;;;;1.00;0.50;;;;;;;;;;5060452;28;20412;-84
2023/08/19 02:42:58;;;;;;;0.60;0.50;;;;;;;;;;5044081;28;20165;-84
2023/08/19 02:45:25;;;;;;;0.50;0.50;;;;;;;;;;5036170;28;20393;-83
2023/08/19 02:47:51;;;;;;;0.47;0.38;;;;;;;;;;5038160;28;20051;-83
2023/08/19 02:50:17;;;;;;;0.50;0.40;;;;;;;;;;5043040;28;20036;-84
2023/08/19 02:52:43;;;;;;;0.40;0.40;;;;;;;;;;5060392;28;20047;-84
2023/08/19 02:55:09;;;;;;;0.47;0.40;;;;;;;;;;5043619;28;20127;-84
2023/08/19 02:57:35;;;;;;;0.30;0.20;;;;;;;;;;5040390;28;20101;-84
2023/08/19 03:00:01;;;;;;;0.32;0.20;;;;;;;;;;5031793;28;20040;-84
2023/08/19 03:02:27;;;;;;;0.20;0.10;;;;;;;;;;5041815;28;20036;-84
2023/08/19 03:04:53;;;;;;;0.32;0.25;;;;;;;;;;5033017;28;20208;-84
2023/08/19 03:07:19;;;;;;;0.35;0.35;;;;;;;;;;5040240;28;20375;-84
2023/08/19 03:09:45;;;;;;;0.98;0.32;;;;;;;;;;5043491;28;20497;-85
2023/08/19 03:12:11;;;;;;;0.90;0.57;;;;;;;;;;5037780;28;20036;-84
2023/08/19 03:14:37;;;;;;;0.63;0.40;;;;;;;;;;5053766;28;20040;-84
2023/08/19 03:17:03;;;;;;;0.35;0.30;;;;;;;;;;5054399;28;20135;-83
2023/08/19 03:19:30;;;;;;;1.35;0.52;;;;;;;;;;5034369;28;20083;-84
2023/08/19 03:21:56;;;;;;;0.30;0.10;;;;;;;;;;5035901;28;20424;-83
2023/08/19 03:24:22;;;;;;;1.17;0.47;;;;;;;;;;5037011;28;20059;-84
2023/08/19 03:26:48;;;;;;;0.50;0.32;;;;;;;;;;5041403;28;20051;-83
2023/08/19 03:29:14;;;;;;;0.40;0.40;;;;;;;;;;5055477;28;20045;-84
2023/08/19 03:31:40;;;;;;;0.57;0.32;;;;;;;;;;5032888;28;20115;-84
2023/08/19 03:34:06;;;;;;;0.20;0.20;;;;;;;;;;5058934;28;20152;-84
2023/08/19 03:36:32;;;;;;;0.73;0.70;;;;;;;;;;5043483;28;20393;-85
2023/08/19 03:39:01;;;;;;;0.50;0.45;;;;;;;;;;5031134;28;20784;-84
2023/08/19 03:41:27;;;;;;;0.30;0.30;;;;;;;;;;5054485;28;20036;-83
2023/08/19 03:43:53;;;;;;;0.70;0.30;;;;;;;;;;5034091;28;20040;-83
2023/08/19 03:46:19;;;;;;;0.63;0.38;;;;;;;;;;5058656;28;20031;-83
2023/08/19 03:48:45;;;;;;;0.20;0.20;;;;;;;;;;5039937;28;20575;-84
2023/08/19 03:51:11;;;;;;;0.68;0.47;;;;;;;;;;5037981;28;20039;-83
2023/08/19 03:53:37;;;;;;;0.73;0.38;;;;;;;;;;5055537;28;20040;-84
2023/08/19 03:56:03;;;;;;;0.20;0.20;;;;;;;;;;5053292;28;20449;-84
2023/08/19 03:58:29;;;;;;;0.20;0.20;;;;;;;;;;5037676;28;20044;-84
2023/08/19 04:01:03;;;;;;;0.43;0.28;;;;;;;;;;5052085;28;20528;-84
2023/08/19 04:03:29;;;;;;;0.45;0.45;;;;;;;;;;5035741;28;20575;-85
2023/08/19 04:05:55;;;;;;;0.25;0.20;;;;;;;;;;5058765;28;20217;-84
2023/08/19 04:08:21;;;;;;;0.35;0.35;;;;;;;;;;5038805;28;20075;-86
2023/08/19 04:10:47;;;;;;;0.50;0.30;;;;;;;;;;5037137;28;20381;-85
2023/08/19 04:13:13;;;;;;;0.30;0.30;;;;;;;;;;5057737;28;20040;-84
2023/08/19 04:15:39;;;;;;;0.40;0.20;;;;;;;;;;5040384;28;20036;-83
2023/08/19 04:18:07;;;;;;;0.38;0.38;;;;;;;;;;5054858;28;20519;-84
2023/08/19 04:20:36;;;;;;;0.20;0.20;;;;;;;;;;5038942;28;20059;-85
2023/08/19 04:23:02;;;;;;;0.68;0.32;;;;;;;;;;5056049;28;20093;-83
2023/08/19 04:25:28;;;;;;;0.50;0.20;;;;;;;;;;5060982;28;20052;-84
2023/08/19 04:27:54;;;;;;;0.38;0.20;;;;;;;;;;5054549;28;20051;-84
2023/08/19 04:30:21;;;;;;;0.65;0.52;;;;;;;;;;5032884;28;20044;-83
2023/08/19 04:32:47;;;;;;;0.20;0.20;;;;;;;;;;5042293;28;20138;-84
2023/08/19 04:35:13;;;;;;;0.20;0.20;;;;;;;;;;5042419;28;20068;-83
2023/08/19 04:37:39;;;;;;;0.20;0.10;;;;;;;;;;5042720;28;20044;-83
2023/08/19 04:40:09;;;;;;;0.40;0.40;;;;;;;;;;5031542;28;20496;-83
2023/08/19 04:42:38;;;;;;;0.20;0.15;;;;;;;;;;5060762;28;20051;-83
2023/08/19 04:45:09;;;;;;;0.63;0.63;;;;;;;;;;5043375;28;20043;-83
2023/08/19 04:47:35;;;;;;;0.70;0.32;;;;;;;;;;5055684;28;20663;-83
2023/08/19 04:50:01;;;;;;;0.20;0.13;;;;;;;;;;5061942;28;20122;-83
2023/08/19 04:52:27;;;;;;;0.30;0.30;;;;;;;;;;5060359;28;20070;-83
2023/08/19 04:54:53;;;;;;;0.20;0.15;;;;;;;;;;5062272;28;20100;-83
2023/08/19 04:57:19;;;;;;;0.20;0.10;;;;;;;;;;5039310;28;20131;-83
2023/08/19 04:59:45;;;;;;;0.35;0.35;;;;;;;;;;5045408;28;20122;-83
2023/08/19 05:02:11;;;;;;;0.30;0.25;;;;;;;;;;5051934;28;20548;-86
2023/08/19 05:04:37;;;;;;;0.20;0.10;;;;;;;;;;5061648;28;20051;-83
2023/08/19 05:07:03;;;;;;;1.52;0.57;;;;;;;;;;5051844;28;20504;-83
2023/08/19 05:09:29;;;;;;;0.40;0.40;;;;;;;;;;5033025;28;22143;-83
2023/08/19 05:11:55;;;;;;;0.43;0.28;;;;;;;;;;5051158;28;20500;-83
2023/08/19 05:14:21;;;;;;;0.40;0.40;;;;;;;;;;5049520;28;20044;-83
2023/08/19 05:16:47;;;;;;;0.20;0.20;;;;;;;;;;5027180;28;20044;-83
2023/08/19 05:19:18;;;;;;;0.30;0.25;;;;;;;;;;5051156;28;20032;-83
2023/08/19 05:21:45;;;;;;;0.35;0.22;;;;;;;;;;5033840;28;20024;-84
2023/08/19 05:24:11;;;;;;;0.38;0.10;;;;;;;;;;5045983;28;20047;-84
2023/08/19 05:26:46;;;;;;;0.50;0.30;;;;;;;;;;5035275;28;20924;-83
2023/08/19 05:29:13;;;;;;;0.30;0.30;;;;;;;;;;5032500;28;20496;-83
2023/08/19 05:31:39;;;;;;;0.43;0.28;;;;;;;;;;5030786;28;20040;-83
2023/08/19 05:34:07;;;;;;;0.30;0.30;;;;;;;;;;5031898;28;20047;-83
2023/08/19 05:36:33;;;;;;;0.38;0.25;;;;;;;;;;5051345;28;20036;-84
2023/08/19 05:38:59;;;;;;;0.20;0.20;;;;;;;;;;5034185;28;20040;-83
2023/08/19 05:41:26;;;;;;;0.35;0.30;;;;;;;;;;5045956;28;20198;-83
2023/08/19 05:43:52;;;;;;;0.20;0.10;;;;;;;;;;5051827;28;20560;-83
2023/08/19 05:46:18;;;;;;;0.20;0.10;;;;;;;;;;5030110;28;20036;-82
2023/08/19 05:48:44;;;;;;;0.47;0.32;;;;;;;;;;5033943;28;20040;-83
2023/08/19 05:51:10;;;;;;;0.30;0.10;;;;;;;;;;5049852;28;20046;-83
2023/08/19 05:53:36;;;;;;;0.38;0.25;;;;;;;;;;5052599;28;20063;-83
2023/08/19 05:56:03;;;;;;;0.20;0.10;;;;;;;;;;5053006;28;20040;-83
2023/08/19 05:58:29;;;;;;;0.30;0.30;;;;;;;;;;5051431;28;20308;-83
2023/08/19 06:00:58;;;;;;;0.20;0.10;;;;;;;;;;5031445;28;20063;-83
2023/08/19 06:03:24;;;;;;;0.20;0.20;;;;;;;;;;5054001;28;20670;-83
2023/08/19 06:05:50;;;;;;;0.20;0.15;;;;;;;;;;5026809;28;20444;-83
2023/08/19 06:08:16;;;;;;;0.25;0.25;;;;;;;;;;5031264;28;20235;-83
2023/08/19 06:10:44;;;;;;;0.30;0.20;;;;;;;;;;5049622;28;20055;-83
2023/08/19 06:13:13;;;;;;;0.20;0.00;;;;;;;;;;5018041;28;20035;-83
2023/08/19 06:15:40;;;;;;;0.20;0.20;;;;;;;;;;5022085;28;20040;-83
2023/08/19 06:18:06;;;;;;;0.20;0.20;;;;;;;;;;5052499;28;20107;-83
2023/08/19 06:20:32;;;;;;;0.20;0.15;;;;;;;;;;5057086;28;20036;-84
2023/08/19 06:22:58;;;;;;;0.20;0.13;;;;;;;;;;5053749;28;20042;-84
2023/08/19 06:25:24;;;;;;;0.20;0.15;;;;;;;;;;5035656;28;20035;-83
2023/08/19 06:27:50;;;;;;;0.30;0.30;;;;;;;;;;5061992;28;20099;-83
2023/08/19 06:30:16;;;;;;;0.50;0.20;;;;;;;;;;5038243;28;20084;-83
2023/08/19 06:32:42;;;;;;;0.20;0.10;;;;;;;;;;5053456;28;20083;-83
2023/08/19 06:35:09;;;;;;;0.32;0.10;;;;;;;;;;5057667;28;20044;-83
2023/08/19 06:37:41;;;;;;;0.38;0.28;;;;;;;;;;5053796;28;20052;-85
2023/08/19 06:40:08;;;;;;;0.20;0.15;;;;;;;;;;5055180;28;20044;-84
2023/08/19 06:42:35;;;;;;;0.20;0.10;;;;;;;;;;5035886;28;20036;-84
2023/08/19 06:45:02;;;;;;;0.20;0.10;;;;;;;;;;5039294;28;20463;-83
2023/08/19 06:47:31;;;;;;;0.20;0.10;;;;;;;;;;5038110;28;21415;-83
2023/08/19 06:49:58;;;;;;;0.20;0.10;;;;;;;;;;5054415;28;20097;-83
2023/08/19 06:52:24;;;;;;;0.20;0.20;;;;;;;;;;5037642;28;20201;-83
2023/08/19 06:54:51;;;;;;;0.20;0.20;;;;;;;;;;5034221;28;20044;-83
2023/08/19 06:57:22;;;;;;;0.20;0.13;;;;;;;;;;5037798;22;20037;-78
2023/08/19 06:59:50;;;;;;;0.30;0.30;;;;;;;;;;5026363;28;20468;-78
2023/08/19 07:02:18;;;;;;;0.20;0.20;;;;;;;;;;5022318;28;20044;-78
2023/08/19 07:04:45;;;;;;;0.20;0.10;;;;;;;;;;5027583;28;20063;-78
2023/08/19 07:07:12;;;;;;;0.20;0.10;;;;;;;;;;5030745;28;20112;-79
2023/08/19 07:09:38;;;;;;;0.20;0.10;;;;;;;;;;5014770;28;20064;-79
2023/08/19 07:12:04;;;;;;;0.20;0.10;;;;;;;;;;5018523;28;20044;-78
2023/08/19 07:14:31;;;;;;;0.28;0.15;;;;;;;;;;5000602;28;20056;-79
2023/08/19 07:16:59;;;;;;;0.50;0.30;;;;;;;;;;5003395;28;21989;-79
2023/08/19 07:19:35;;;;;;;0.20;0.10;;;;;;;;;;4986596;28;20072;-79
2023/08/19 07:22:02;;;;;;;0.30;0.17;;;;;;;;;;5012046;28;20042;-79
2023/08/19 07:24:28;;;;;;;0.20;0.20;;;;;;;;;;5004073;28;20106;-79
2023/08/19 07:26:54;;;;;;;0.20;0.10;;;;;;;;;;5021118;28;20044;-78
2023/08/19 07:29:21;;;;;;;0.40;0.40;;;;;;;;;;5000592;28;20562;-79
2023/08/19 07:31:47;;;;;;;0.22;0.20;;;;;;;;;;5015440;28;21039;-78
2023/08/19 07:34:13;;;;;;;0.50;0.20;;;;;;;;;;4997248;28;20061;-78
2023/08/19 07:36:39;;;;;;;0.20;0.10;;;;;;;;;;5022192;28;20037;-79
2023/08/19 07:39:05;;;;;;;0.20;0.10;;;;;;;;;;5017502;28;20521;-78
2023/08/19 07:41:31;;;;;;;0.20;0.10;;;;;;;;;;5016572;28;20413;-79
2023/08/19 07:43:57;;;;;;;0.38;0.20;;;;;;;;;;5018689;28;20406;-79
2023/08/19 07:46:25;;;;;;;0.32;0.20;;;;;;;;;;5021489;28;20044;-79
2023/08/19 07:48:51;;;;;;;0.30;0.20;;;;;;;;;;5010325;28;20357;-80
2023/08/19 07:51:17;;;;;;;0.25;0.13;;;;;;;;;;5017925;28;20052;-79
2023/08/19 07:53:43;;;;;;;0.40;0.38;;;;;;;;;;5006779;28;20588;-79
2023/08/19 07:56:09;;;;;;;0.30;0.22;;;;;;;;;;5019455;28;20029;-79
2023/08/19 07:58:36;;;;;;;0.20;0.10;;;;;;;;;;5008197;28;20678;-79
2023/08/19 08:01:02;;;;;;;0.20;0.10;;;;;;;;;;5006786;28;20036;-80
2023/08/19 08:03:29;;;;;;;0.20;0.10;;;;;;;;;;5027090;28;20119;-79
2023/08/19 08:05:55;;;;;;;0.40;0.40;;;;;;;;;;5025655;28;20389;-79
2023/08/19 08:08:21;;;;;;;0.20;0.10;;;;;;;;;;5023523;28;20497;-78
2023/08/19 08:10:47;;;;;;;0.20;0.10;;;;;;;;;;5016811;28;20453;-79
2023/08/19 08:13:13;;;;;;;0.45;0.10;;;;;;;;;;5015123;28;20033;-79
2023/08/19 08:15:39;;;;;;;0.20;0.13;;;;;;;;;;5005785;28;20033;-78
2023/08/19 08:18:05;;;;;;;0.28;0.17;;;;;;;;;;5020164;28;20029;-78
2023/08/19 08:20:31;;;;;;;0.40;0.28;;;;;;;;;;5003809;28;20298;-78
2023/08/19 08:22:57;;;;;;;0.20;0.20;;;;;;;;;;5011301;28;20037;-79
2023/08/19 08:25:24;;;;;;;0.20;0.20;;;;;;;;;;5019341;28;20122;-79
2023/08/19 08:27:50;;;;;;;0.32;0.32;;;;;;;;;;5015877;28;20056;-79
2023/08/19 08:30:17;;;;;;;0.20;0.10;;;;;;;;;;5022983;28;20102;-79
2023/08/19 08:32:43;;;;;;;0.30;0.28;;;;;;;;;;5022680;28;20492;-79
2023/08/19 08:35:09;;;;;;;0.20;0.10;;;;;;;;;;5025546;28;20463;-79
2023/08/19 08:37:35;;;;;;;0.20;0.10;;;;;;;;;;5021076;28;20037;-79
2023/08/19 08:40:01;;;;;;;0.20;0.10;;;;;;;;;;5017765;28;20049;-78
2023/08/19 08:42:27;;;;;;;0.20;0.17;;;;;;;;;;5021090;28;20045;-78
2023/08/19 08:44:54;;;;;;;0.20;0.20;;;;;;;;;;5021301;28;20060;-80
2023/08/19 08:47:20;;;;;;;0.20;0.10;;;;;;;;;;5017744;28;20419;-79
2023/08/19 08:49:47;;;;;;;0.20;0.10;;;;;;;;;;5013772;28;20090;-79
2023/08/19 08:52:14;;;;;;;0.20;0.10;;;;;;;;;;5001308;28;20053;-80
2023/08/19 08:54:40;;;;;;;0.20;0.10;;;;;;;;;;5018367;28;20051;-80
2023/08/19 08:57:06;;;;;;;0.20;0.20;;;;;;;;;;5016241;28;20536;-79
2023/08/19 08:59:32;;;;;;;0.20;0.10;;;;;;;;;;5017832;28;20045;-80
2023/08/19 09:01:59;;;;;;;0.38;0.20;;;;;;;;;;5017593;28;20033;-82
2023/08/19 09:04:27;;;;;;;0.20;0.20;;;;;;;;;;5021512;28;20048;-81
2023/08/19 09:06:56;;;;;;;0.20;0.10;;;;;;;;;;5008248;28;20043;-82
2023/08/19 09:09:23;;;;;;;0.22;0.15;;;;;;;;;;5015539;28;20064;-83
2023/08/19 09:11:50;;;;;;;0.20;0.10;;;;;;;;;;5016035;28;20160;-79
2023/08/19 09:14:23;;;;;;;0.38;0.25;;;;;;;;;;5026711;28;20140;-79
2023/08/19 09:16:50;;;;;;;0.38;0.20;;;;;;;;;;5005080;28;20037;-82
2023/08/19 09:19:16;;;;;;;0.20;0.10;;;;;;;;;;5003870;28;20465;-81
2023/08/19 09:21:42;;;;;;;0.50;0.20;;;;;;;;;;5001064;28;20127;-83
2023/08/19 09:24:08;;;;;;;0.20;0.10;;;;;;;;;;5003574;28;20041;-83
2023/08/19 09:26:37;;;;;;;0.20;0.10;;;;;;;;;;5000946;28;20498;-84
2023/08/19 09:29:06;;;;;;;0.20;0.10;;;;;;;;;;4993185;28;20033;-84
2023/08/19 09:31:32;;;;;;;0.20;0.08;;;;;;;;;;5001920;28;20139;-83
2023/08/19 09:34:00;;;;;;;0.20;0.10;;;;;;;;;;5006998;28;20568;-81
2023/08/19 09:36:26;;;;;;;0.28;0.28;;;;;;;;;;5008540;28;20048;-83
2023/08/19 09:38:56;;;;;;;0.25;0.25;;;;;;;;;;4994269;28;20168;-84
2023/08/19 09:41:26;;;;;;;0.30;0.20;;;;;;;;;;5027789;28;20037;-80
2023/08/19 09:43:52;;;;;;;0.73;0.25;;;;;;;;;;5027089;28;20068;-82
2023/08/19 09:46:19;;;;;;;0.20;0.10;;;;;;;;;;5015272;28;20033;-81
2023/08/19 09:48:53;;;;;;;0.30;0.30;;;;;;;;;;5025734;28;20444;-82
2023/08/19 09:51:25;;;;;;;0.20;0.20;;;;;;;;;;5003254;28;20033;-85
2023/08/19 09:53:52;;;;;;;0.30;0.20;;;;;;;;;;5020261;28;20049;-84
2023/08/19 09:56:36;;;;;;;0.35;0.28;;;;;;;;;;5020325;28;20086;-83
2023/08/19 09:59:03;;;;;;;0.22;0.10;;;;;;;;;;4997820;28;20110;-84
2023/08/19 10:01:30;;;;;;;0.35;0.30;;;;;;;;;;4991902;28;20043;-83
2023/08/19 10:03:56;;;;;;;0.20;0.10;;;;;;;;;;5001239;28;20087;-87
2023/08/19 10:06:26;;;;;;;0.20;0.10;;;;;;;;;;5006148;28;20037;-85
2023/08/19 10:09:03;;;;;;;0.25;0.22;;;;;;;;;;5003154;28;20401;-86
2023/08/19 10:11:31;;;;;;;0.20;0.10;;;;;;;;;;5019434;28;20129;-84
2023/08/19 10:14:01;;;;;;;0.50;0.47;;;;;;;;;;5017285;28;20065;-83
2023/08/19 10:16:27;;;;;;;0.50;0.32;;;;;;;;;;5017229;28;20052;-84
2023/08/19 10:18:54;;;;;;;0.30;0.20;;;;;;;;;;5002047;28;20136;-82
2023/08/19 10:21:22;;;;;;;0.50;0.50;;;;;;;;;;5019860;28;20471;-85
2023/08/19 10:23:48;;;;;;;0.30;0.30;;;;;;;;;;5008783;28;20533;-81
2023/08/19 10:26:18;;;;;;;0.20;0.20;;;;;;;;;;5020765;28;20072;-83
2023/08/19 10:29:01;;;;;;;0.20;0.20;;;;;;;;;;5029001;28;20051;-82
2023/08/19 10:31:28;;;;;;;0.25;0.25;;;;;;;;;;5024588;28;20148;-84
2023/08/19 10:33:55;;;;;;;0.20;0.10;;;;;;;;;;5018731;28;20072;-84
2023/08/19 10:36:22;;;;;;;0.28;0.28;;;;;;;;;;5028569;28;20678;-83
2023/08/19 10:38:56;;;;;;;0.20;0.20;;;;;;;;;;5017744;28;20049;-83
2023/08/19 10:41:26;;;;;;;0.30;0.30;;;;;;;;;;5026721;28;20525;-84
2023/08/19 10:44:00;;;;;;;0.20;0.10;;;;;;;;;;5016712;28;20381;-82
2023/08/19 10:46:33;;;;;;;0.20;0.10;;;;;;;;;;5010857;28;20090;-82
2023/08/19 10:48:59;;;;;;;0.30;0.20;;;;;;;;;;5032134;28;20049;-81
2023/08/19 10:51:44;;;;;;;0.20;0.13;;;;;;;;;;5008796;28;20045;-81
2023/08/19 10:54:10;;;;;;;0.20;0.10;;;;;;;;;;5015601;28;20319;-85
2023/08/19 10:56:36;;;;;;;0.28;0.13;;;;;;;;;;5008073;28;20072;-82
2023/08/19 10:59:02;;;;;;;0.20;0.15;;;;;;;;;;5003580;28;20642;-84
2023/08/19 11:01:32;;;;;;;2.58;1.17;;;;;;;;;;5001214;28;20083;-82
2023/08/19 11:03:59;;;;;;;0.20;0.13;;;;;;;;;;5022069;28;20076;-82
2023/08/19 11:06:31;;;;;;;0.28;0.20;;;;;;;;;;5003386;28;20065;-82
2023/08/19 11:09:00;;;;;;;0.20;0.10;;;;;;;;;;5006053;28;21093;-83
2023/08/19 11:11:27;;;;;;;0.38;0.22;;;;;;;;;;5016094;28;20045;-83
2023/08/19 11:13:53;;;;;;;0.25;0.10;;;;;;;;;;5003696;28;20482;-82
2023/08/19 11:16:25;;;;;;;0.30;0.20;;;;;;;;;;5020327;28;20037;-84
2023/08/19 11:18:53;;;;;;;0.47;0.38;;;;;;;;;;5014481;28;20040;-82
2023/08/19 11:21:19;;;;;;;0.45;0.45;;;;;;;;;;5014134;28;20402;-82
2023/08/19 11:23:45;;;;;;;0.50;0.20;;;;;;;;;;5004591;28;20124;-82
2023/08/19 11:26:12;;;;;;;0.30;0.20;;;;;;;;;;4997543;28;20473;-83
2023/08/19 11:28:38;;;;;;;0.30;0.30;;;;;;;;;;5016253;28;20081;-86
2023/08/19 11:31:04;;;;;;;1.33;0.73;;;;;;;;;;5016882;28;20041;-86
2023/08/19 11:33:34;;;;;;;0.50;0.40;;;;;;;;;;4999624;28;20064;-82
2023/08/19 11:36:00;;;;;;;0.30;0.30;;;;;;;;;;5016154;28;20298;-82
2023/08/19 11:38:26;;;;;;;1.05;0.57;;;;;;;;;;4997618;28;20038;-82
2023/08/19 11:40:52;;;;;;;0.63;0.63;;;;;;;;;;5007327;28;20079;-84
2023/08/19 11:43:22;;;;;;;0.25;0.25;;;;;;;;;;5000034;28;20248;-83
2023/08/19 11:45:50;;;;;;;0.82;0.57;;;;;;;;;;5018074;28;20036;-85
2023/08/19 11:48:20;;;;;;;0.43;0.43;;;;;;;;;;5017200;28;20457;-87
2023/08/19 11:50:56;;;;;;;0.40;0.40;;;;;;;;;;5015616;28;20498;-83
2023/08/19 11:53:23;;;;;;;0.85;0.50;;;;;;;;;;5010988;28;20363;-85
2023/08/19 11:55:52;;;;;;;0.50;0.50;;;;;;;;;;5013020;28;20482;-85
2023/08/19 11:58:19;;;;;;;0.55;0.40;;;;;;;;;;5023296;28;20069;-83
2023/08/19 12:00:45;;;;;;;0.60;0.32;;;;;;;;;;5003427;28;20120;-86
2023/08/19 12:03:14;;;;;;;1.00;0.35;;;;;;;;;;5006048;28;20043;-82
2023/08/19 12:05:43;;;;;;;0.65;0.47;;;;;;;;;;5017429;28;20128;-82
2023/08/19 12:08:09;;;;;;;0.82;0.45;;;;;;;;;;5015090;28;20041;-81
2023/08/19 12:10:42;;;;;;;0.25;0.20;;;;;;;;;;5002832;28;20098;-81
2023/08/19 12:13:08;;;;;;;1.45;0.95;;;;;;;;;;4994858;28;20049;-82
2023/08/19 12:15:34;;;;;;;0.30;0.30;;;;;;;;;;5001960;28;20040;-83
2023/08/19 12:18:21;;;;;;;0.32;0.32;;;;;;;;;;4995777;28;20039;-85
2023/08/19 12:20:47;;;;;;;0.43;0.40;;;;;;;;;;5010233;28;20048;-87
2023/08/19 12:23:13;;;;;;;0.60;0.55;;;;;;;;;;5006430;28;20375;-85
2023/08/19 12:25:47;;;;;;;0.70;0.70;;;;;;;;;;5015807;28;20333;-84
2023/08/19 12:28:20;;;;;;;0.85;0.85;;;;;;;;;;4995635;28;20037;-87
2023/08/19 12:30:55;;;;;;;1.48;1.02;;;;;;;;;;4999825;28;20502;-86
2023/08/19 12:33:22;;;;;;;0.82;0.60;;;;;;;;;;4998491;28;20171;-86
2023/08/19 12:35:57;;;;;;;0.75;0.75;;;;;;;;;;5006462;28;20041;-86
2023/08/19 12:38:23;;;;;;;0.73;0.60;;;;;;;;;;5006388;28;20590;-89
2023/08/19 12:40:49;;;;;;;0.98;0.90;;;;;;;;;;4994432;28;20056;-87
2023/08/19 12:43:18;;;;;;;0.77;0.77;;;;;;;;;;5014991;28;20502;-86
2023/08/19 12:46:07;;;;;;;0.50;0.38;;;;;;;;;;5015823;28;20519;-88
2023/08/19 12:48:33;;;;;;;0.40;0.40;;;;;;;;;;5003418;28;20409;-84
2023/08/19 12:50:59;;;;;;;1.17;0.90;;;;;;;;;;5006066;28;20400;-86
2023/08/19 12:53:25;;;;;;;1.33;0.80;;;;;;;;;;5019452;28;20043;-85
2023/08/19 12:55:51;;;;;;;1.55;0.95;;;;;;;;;;5001783;28;20985;-87
2023/08/19 12:58:18;;;;;;;1.13;0.90;;;;;;;;;;5060191;22;20571;-81
2023/08/19 13:00:44;;;;;;;1.95;1.35;;;;;;;;;;5030686;28;20086;-82
2023/08/19 13:03:10;;;;;;;1.70;1.60;;;;;;;;;;5032168;28;20565;-81
2023/08/19 13:05:36;;;;;;;1.95;1.63;;;;;;;;;;5024773;28;20110;-83
2023/08/19 13:08:02;;;;;;;0.70;0.70;;;;;;;;;;5017590;28;20045;-82
2023/08/19 13:10:29;;;;;;;0.88;0.88;;;;;;;;;;5021412;28;20593;-81
2023/08/19 13:12:55;;;;;;;0.60;0.60;;;;;;;;;;5010373;28;20037;-83
2023/08/19 13:15:21;;;;;;;1.10;1.00;;;;;;;;;;5015928;28;20832;-83
2023/08/19 13:17:47;;;;;;;0.50;0.47;;;;;;;;;;4991833;28;20045;-85
2023/08/19 13:20:17;;;;;;;0.43;0.40;;;;;;;;;;4998363;28;20042;-83
2023/08/19 13:22:43;;;;;;;0.32;0.32;;;;;;;;;;4997966;28;20101;-83
2023/08/19 13:25:09;;;;;;;0.85;0.30;;;;;;;;;;5001250;28;20033;-84
2023/08/19 13:27:35;;;;;;;0.50;0.50;;;;;;;;;;5000428;28;20041;-85
2023/08/19 13:30:01;;;;;;;0.73;0.40;;;;;;;;;;4997185;28;20044;-84
2023/08/19 13:32:27;;;;;;;0.35;0.32;;;;;;;;;;5001412;28;20033;-84
2023/08/19 13:34:53;;;;;;;0.68;0.63;;;;;;;;;;4989958;28;20045;-85
2023/08/19 13:37:19;;;;;;;0.20;0.15;;;;;;;;;;5002157;28;20041;-84
2023/08/19 13:39:45;;;;;;;0.20;0.20;;;;;;;;;;5004353;28;20049;-85
2023/08/19 13:42:11;;;;;;;0.28;0.28;;;;;;;;;;5017632;28;20068;-83
2023/08/19 13:44:37;;;;;;;0.20;0.10;;;;;;;;;;5014449;28;20044;-84
2023/08/19 13:47:03;;;;;;;0.40;0.40;;;;;;;;;;4997426;28;20046;-83
2023/08/19 13:49:29;;;;;;;0.40;0.20;;;;;;;;;;5003314;28;20655;-82
2023/08/19 13:51:55;;;;;;;0.22;0.20;;;;;;;;;;5003843;28;20590;-83
2023/08/19 13:54:21;;;;;;;0.60;0.28;;;;;;;;;;5003224;28;20049;-84
2023/08/19 13:56:49;;;;;;;0.20;0.10;;;;;;;;;;4992672;28;20128;-83
2023/08/19 13:59:16;;;;;;;0.20;0.10;;;;;;;;;;4990937;28;20061;-84
2023/08/19 14:01:42;;;;;;;0.40;0.40;;;;;;;;;;4995808;28;20034;-84
2023/08/19 14:04:10;;;;;;;0.38;0.20;;;;;;;;;;4999788;28;20402;-85
2023/08/19 14:06:36;;;;;;;0.25;0.10;;;;;;;;;;5015444;28;20402;-85
2023/08/19 14:09:03;;;;;;;0.40;0.30;;;;;;;;;;4998783;28;20410;-84
2023/08/19 14:11:29;;;;;;;0.57;0.40;;;;;;;;;;5012495;28;20041;-85
2023/08/19 14:13:55;;;;;;;0.20;0.10;;;;;;;;;;5003914;28;20875;-86
2023/08/19 14:16:21;;;;;;;0.20;0.20;;;;;;;;;;5018541;28;20061;-84
2023/08/19 14:18:48;;;;;;;0.20;0.10;;;;;;;;;;5004113;28;20073;-85
2023/08/19 14:21:14;;;;;;;0.45;0.35;;;;;;;;;;5002665;28;20045;-84
2023/08/19 14:23:40;;;;;;;0.20;0.17;;;;;;;;;;5008956;28;20033;-84
2023/08/19 14:26:07;;;;;;;0.30;0.30;;;;;;;;;;5008150;28;20033;-84
2023/08/19 14:28:33;;;;;;;0.20;0.10;;;;;;;;;;5027251;28;20437;-84
2023/08/19 14:30:59;;;;;;;0.73;0.17;;;;;;;;;;5001707;28;20037;-84
2023/08/19 14:33:25;;;;;;;0.75;0.30;;;;;;;;;;4998103;28;20514;-85
2023/08/19 14:35:51;;;;;;;0.20;0.10;;;;;;;;;;5001121;28;20052;-84
2023/08/19 14:38:17;;;;;;;0.40;0.25;;;;;;;;;;4999774;28;20045;-84
2023/08/19 14:40:43;;;;;;;0.57;0.57;;;;;;;;;;5002223;28;20060;-85
2023/08/19 14:43:09;;;;;;;0.20;0.20;;;;;;;;;;5003424;28;20043;-84